Time;durP1;ratioP1;P1;durP2;ratioP2;P2;SDS_P1;SDS_P2;PMS_P1;PMS_P2;Temp;Humidity;BMP_temperature;BMP_pressure;BME280_temperature;BME280_humidity;BME280_pressure;Samples;Min_cycle;Max_cycle;Signal;HPM_P1;HPM_P2
2022/11/22 00:02:16;;;;;;;41.77;18.70;;;;;;;;;;5030594;28;20080;-78
2022/11/22 00:04:41;;;;;;;52.77;21.43;;;;;;;;;;5028587;28;20017;-78
2022/11/22 00:07:07;;;;;;;49.60;21.23;;;;;;;;;;5028823;28;20026;-78
2022/11/22 00:09:33;;;;;;;46.57;17.63;;;;;;;;;;5028850;28;20048;-78
2022/11/22 00:11:58;;;;;;;55.40;24.30;;;;;;;;;;5028877;28;20073;-78
2022/11/22 00:14:24;;;;;;;46.77;20.50;;;;;;;;;;5029997;28;20033;-78
2022/11/22 00:16:49;;;;;;;49.30;21.20;;;;;;;;;;5028872;28;20035;-78
2022/11/22 00:19:15;;;;;;;42.80;19.27;;;;;;;;;;5028696;28;20034;-79
2022/11/22 00:21:40;;;;;;;42.80;18.80;;;;;;;;;;5032193;28;20512;-78
2022/11/22 00:24:07;;;;;;;38.67;16.63;;;;;;;;;;5033916;28;20113;-78
2022/11/22 00:26:33;;;;;;;40.23;17.50;;;;;;;;;;5032586;28;20027;-77
2022/11/22 00:28:58;;;;;;;38.00;17.80;;;;;;;;;;5033376;28;20539;-78
2022/11/22 00:31:24;;;;;;;38.37;17.97;;;;;;;;;;5032156;28;20029;-78
2022/11/22 00:33:49;;;;;;;38.73;17.10;;;;;;;;;;5032354;28;20033;-78
2022/11/22 00:36:16;;;;;;;37.37;16.57;;;;;;;;;;5033302;28;20032;-78
2022/11/22 00:38:42;;;;;;;42.13;19.00;;;;;;;;;;5032166;28;20032;-78
2022/11/22 00:41:08;;;;;;;42.50;17.60;;;;;;;;;;5032993;28;20033;-79
2022/11/22 00:43:34;;;;;;;39.53;18.27;;;;;;;;;;5032020;28;20057;-79
2022/11/22 00:45:59;;;;;;;36.77;17.03;;;;;;;;;;5031884;28;20032;-78
2022/11/22 00:48:25;;;;;;;37.93;16.33;;;;;;;;;;5031833;28;20128;-79
2022/11/22 00:50:51;;;;;;;39.37;17.13;;;;;;;;;;5033915;28;20033;-78
2022/11/22 00:53:16;;;;;;;39.87;16.10;;;;;;;;;;5032474;28;20036;-80
2022/11/22 00:55:43;;;;;;;37.00;14.77;;;;;;;;;;5033092;28;20029;-77
2022/11/22 00:58:10;;;;;;;44.40;15.87;;;;;;;;;;5031304;28;20105;-80
2022/11/22 01:00:36;;;;;;;38.27;16.23;;;;;;;;;;5048326;28;20033;-79
2022/11/22 01:03:01;;;;;;;35.87;16.33;;;;;;;;;;5032493;28;20084;-78
2022/11/22 01:05:27;;;;;;;35.27;15.53;;;;;;;;;;5033722;28;20056;-78
2022/11/22 01:07:52;;;;;;;37.20;18.27;;;;;;;;;;5032232;28;20028;-78
2022/11/22 01:10:18;;;;;;;37.77;17.10;;;;;;;;;;5032775;28;20061;-77
2022/11/22 01:12:44;;;;;;;34.37;17.67;;;;;;;;;;5034504;28;20034;-77
2022/11/22 01:15:10;;;;;;;37.10;16.50;;;;;;;;;;5033023;28;20088;-78
2022/11/22 01:17:36;;;;;;;37.60;15.73;;;;;;;;;;5031526;28;20029;-78
2022/11/22 01:20:02;;;;;;;31.63;14.20;;;;;;;;;;5031481;28;20036;-79
2022/11/22 01:22:29;;;;;;;35.47;14.87;;;;;;;;;;5031612;28;20440;-79
2022/11/22 01:24:54;;;;;;;39.43;15.83;;;;;;;;;;5032981;28;20112;-79
2022/11/22 01:27:20;;;;;;;37.30;15.00;;;;;;;;;;5031165;28;20132;-79
2022/11/22 01:29:45;;;;;;;33.87;14.20;;;;;;;;;;5032560;28;20774;-78
2022/11/22 01:32:10;;;;;;;35.40;14.53;;;;;;;;;;5031270;28;20033;-78
2022/11/22 01:34:36;;;;;;;34.67;13.97;;;;;;;;;;5031153;28;20385;-78
2022/11/22 01:37:01;;;;;;;35.87;14.73;;;;;;;;;;5032088;28;20037;-78
2022/11/22 01:39:27;;;;;;;36.53;15.77;;;;;;;;;;5032694;28;20484;-78
2022/11/22 01:41:52;;;;;;;35.23;15.63;;;;;;;;;;5031379;28;20096;-78
2022/11/22 01:44:29;;;;;;;35.50;16.33;;;;;;;;;;5030527;28;20560;-78
2022/11/22 01:46:59;;;;;;;37.43;15.87;;;;;;;;;;5033474;28;20044;-78
2022/11/22 01:49:39;;;;;;;33.77;14.20;;;;;;;;;;5033259;28;20494;-78
2022/11/22 01:52:18;;;;;;;33.97;14.40;;;;;;;;;;5030745;28;20060;-78
2022/11/22 01:54:52;;;;;;;31.97;14.40;;;;;;;;;;5030889;28;20033;-78
2022/11/22 01:57:24;;;;;;;29.77;12.60;;;;;;;;;;5030423;28;20033;-78
2022/11/22 01:59:55;;;;;;;36.25;13.13;;;;;;;;;;5031143;28;20025;-78
2022/11/22 02:02:21;;;;;;;33.03;14.27;;;;;;;;;;5031694;28;20055;-78
2022/11/22 02:04:48;;;;;;;38.20;14.63;;;;;;;;;;5030821;28;20485;-78
2022/11/22 02:07:25;;;;;;;37.20;14.13;;;;;;;;;;5030394;28;20112;-77
2022/11/22 02:09:52;;;;;;;32.37;13.63;;;;;;;;;;5030875;28;20021;-78
2022/11/22 02:12:21;;;;;;;39.57;15.27;;;;;;;;;;5031761;28;20105;-78
2022/11/22 02:14:48;;;;;;;26.70;12.73;;;;;;;;;;5031092;28;20367;-78
2022/11/22 02:17:13;;;;;;;35.90;13.27;;;;;;;;;;5030267;28;20021;-78
2022/11/22 02:19:42;;;;;;;27.07;13.77;;;;;;;;;;5031589;28;20030;-79
2022/11/22 02:22:31;;;;;;;32.43;14.13;;;;;;;;;;5031275;28;20053;-80
2022/11/22 02:25:10;;;;;;;36.77;13.87;;;;;;;;;;5030378;28;20184;-79
2022/11/22 02:27:36;;;;;;;32.17;12.73;;;;;;;;;;5030008;28;20029;-77
2022/11/22 02:30:01;;;;;;;28.00;13.20;;;;;;;;;;5030129;28;20036;-78
2022/11/22 02:32:27;;;;;;;30.13;13.37;;;;;;;;;;5031612;28;20018;-78
2022/11/22 02:34:52;;;;;;;31.77;13.77;;;;;;;;;;5030145;28;20021;-79
2022/11/22 02:37:27;;;;;;;27.97;13.70;;;;;;;;;;5031054;28;20469;-79
2022/11/22 02:39:57;;;;;;;32.63;12.03;;;;;;;;;;5030086;28;20025;-78
2022/11/22 02:42:25;;;;;;;28.50;13.37;;;;;;;;;;5029322;28;20046;-78
2022/11/22 02:44:50;;;;;;;29.53;13.27;;;;;;;;;;5029748;28;20025;-78
2022/11/22 02:47:16;;;;;;;32.80;13.63;;;;;;;;;;5029146;28;20099;-78
2022/11/22 02:49:41;;;;;;;33.93;13.67;;;;;;;;;;5030514;28;20025;-78
2022/11/22 02:52:07;;;;;;;27.73;12.80;;;;;;;;;;5029344;28;20060;-78
2022/11/22 02:54:32;;;;;;;33.63;14.03;;;;;;;;;;5029628;28;20021;-78
2022/11/22 02:56:58;;;;;;;33.87;13.77;;;;;;;;;;5029363;28;20245;-78
2022/11/22 02:59:23;;;;;;;33.30;13.67;;;;;;;;;;5030602;28;20025;-78
2022/11/22 03:01:49;;;;;;;35.87;14.03;;;;;;;;;;5030592;28;20426;-78
2022/11/22 03:04:23;;;;;;;28.60;12.57;;;;;;;;;;5029100;28;20176;-77
2022/11/22 03:06:58;;;;;;;28.43;13.17;;;;;;;;;;5029045;28;20021;-78
2022/11/22 03:09:25;;;;;;;34.07;14.07;;;;;;;;;;5029345;28;20035;-78
2022/11/22 03:11:51;;;;;;;37.00;15.77;;;;;;;;;;5031006;28;20025;-78
2022/11/22 03:14:17;;;;;;;32.73;14.83;;;;;;;;;;5031347;28;20037;-77
2022/11/22 03:16:43;;;;;;;34.27;15.17;;;;;;;;;;5029999;28;20060;-78
2022/11/22 03:19:09;;;;;;;30.23;13.60;;;;;;;;;;5029367;28;20035;-78
2022/11/22 03:21:35;;;;;;;33.10;14.63;;;;;;;;;;5029762;28;20029;-78
2022/11/22 03:24:01;;;;;;;37.53;15.97;;;;;;;;;;5030723;28;20046;-78
2022/11/22 03:26:26;;;;;;;34.20;15.40;;;;;;;;;;5029332;28;20029;-77
2022/11/22 03:28:52;;;;;;;33.47;14.00;;;;;;;;;;5029336;28;20402;-78
2022/11/22 03:31:17;;;;;;;34.87;14.57;;;;;;;;;;5029564;28;20092;-77
2022/11/22 03:33:43;;;;;;;35.60;16.03;;;;;;;;;;5028839;28;20101;-78
2022/11/22 03:36:08;;;;;;;37.70;16.23;;;;;;;;;;5030677;28;20026;-79
2022/11/22 03:38:34;;;;;;;38.57;15.83;;;;;;;;;;5030734;28;20053;-79
2022/11/22 03:41:00;;;;;;;34.43;15.57;;;;;;;;;;5030856;28;20103;-79
2022/11/22 03:43:26;;;;;;;33.33;15.97;;;;;;;;;;5029752;28;20046;-78
2022/11/22 03:45:51;;;;;;;42.00;16.33;;;;;;;;;;5029546;28;20037;-80
2022/11/22 03:48:18;;;;;;;36.00;14.43;;;;;;;;;;5030756;28;20095;-79
2022/11/22 03:50:43;;;;;;;49.40;20.97;;;;;;;;;;5030940;28;20028;-79
2022/11/22 03:53:11;;;;;;;43.00;17.30;;;;;;;;;;5029160;28;20164;-78
2022/11/22 03:55:36;;;;;;;38.27;15.63;;;;;;;;;;5032119;28;20120;-78
2022/11/22 03:58:02;;;;;;;33.60;14.67;;;;;;;;;;5033450;28;20120;-79
2022/11/22 04:00:28;;;;;;;41.03;15.83;;;;;;;;;;5033376;28;20053;-76
2022/11/22 04:02:53;;;;;;;34.63;16.30;;;;;;;;;;5033081;28;20025;-77
2022/11/22 04:05:19;;;;;;;35.90;14.93;;;;;;;;;;5034143;28;20035;-78
2022/11/22 04:07:44;;;;;;;35.13;14.63;;;;;;;;;;5032992;28;20083;-78
2022/11/22 04:10:10;;;;;;;36.40;15.07;;;;;;;;;;5034676;28;20033;-77
2022/11/22 04:12:35;;;;;;;33.60;14.07;;;;;;;;;;5032216;28;20033;-78
2022/11/22 04:15:07;;;;;;;34.07;14.93;;;;;;;;;;5033255;28;20037;-77
2022/11/22 04:17:42;;;;;;;38.33;15.05;;;;;;;;;;5032678;28;20029;-79
2022/11/22 04:23:13;;;;;;;35.55;14.88;;;;;;;;;;5033172;28;20039;-80
2022/11/22 04:25:41;;;;;;;30.93;14.47;;;;;;;;;;5032205;28;20080;-78
2022/11/22 04:28:08;;;;;;;44.67;15.87;;;;;;;;;;5034479;28;20104;-78
2022/11/22 04:33:19;;;;;;;34.47;13.87;;;;;;;;;;5035868;28;20036;-79
2022/11/22 04:35:46;;;;;;;31.53;15.07;;;;;;;;;;5033502;28;20010;-79
2022/11/22 04:38:12;;;;;;;39.50;17.03;;;;;;;;;;5032233;28;20025;-79
2022/11/22 04:40:38;;;;;;;31.40;14.10;;;;;;;;;;5033774;28;20026;-79
2022/11/22 04:45:50;;;;;;;31.10;14.00;;;;;;;;;;5034025;28;20099;-78
2022/11/22 04:48:16;;;;;;;28.57;13.33;;;;;;;;;;5032367;28;20068;-78
2022/11/22 04:53:40;;;;;;;29.50;12.90;;;;;;;;;;4999489;28;20125;-79
2022/11/22 04:56:06;;;;;;;29.13;13.70;;;;;;;;;;5031752;28;20112;-78
2022/11/22 04:58:32;;;;;;;33.93;14.47;;;;;;;;;;5031787;28;20029;-77
2022/11/22 05:00:58;;;;;;;28.00;13.87;;;;;;;;;;5032906;28;20037;-78
2022/11/22 05:03:25;;;;;;;38.77;14.83;;;;;;;;;;5031248;28;20462;-77
2022/11/22 05:05:51;;;;;;;34.30;15.43;;;;;;;;;;5032557;28;20057;-78
2022/11/22 05:08:16;;;;;;;35.00;15.50;;;;;;;;;;5032839;28;20518;-78
2022/11/22 05:10:57;;;;;;;33.67;14.77;;;;;;;;;;5033836;28;20034;-78
2022/11/22 05:13:35;;;;;;;39.20;15.17;;;;;;;;;;5048547;28;20029;-79
2022/11/22 05:16:03;;;;;;;30.40;13.60;;;;;;;;;;5033374;28;20060;-78
2022/11/22 05:18:28;;;;;;;32.43;14.60;;;;;;;;;;5014998;28;20072;-77
2022/11/22 05:20:54;;;;;;;38.10;14.43;;;;;;;;;;5031269;28;20071;-78
2022/11/22 05:26:07;;;;;;;37.23;14.93;;;;;;;;;;5045720;28;20113;-78
2022/11/22 05:28:35;;;;;;;36.33;14.43;;;;;;;;;;5030803;28;20029;-79
2022/11/22 05:31:15;;;;;;;29.00;14.67;;;;;;;;;;5030803;28;20094;-78
2022/11/22 05:33:43;;;;;;;38.43;15.33;;;;;;;;;;5032083;28;20095;-79
2022/11/22 05:36:10;;;;;;;38.43;14.43;;;;;;;;;;5032049;28;20422;-77
2022/11/22 05:38:36;;;;;;;37.63;17.07;;;;;;;;;;5032569;28;20030;-78
2022/11/22 05:41:03;;;;;;;36.97;16.67;;;;;;;;;;5030918;28;20148;-78
2022/11/22 05:43:29;;;;;;;35.53;15.40;;;;;;;;;;5030297;28;20064;-79
2022/11/22 05:45:55;;;;;;;36.90;16.10;;;;;;;;;;5033136;28;20051;-78
2022/11/22 05:48:20;;;;;;;42.03;15.33;;;;;;;;;;5031007;28;20525;-79
2022/11/22 05:50:46;;;;;;;38.27;16.00;;;;;;;;;;5032243;28;20028;-78
2022/11/22 05:53:11;;;;;;;43.80;16.10;;;;;;;;;;5032390;28;20500;-78
2022/11/22 05:55:37;;;;;;;38.20;16.13;;;;;;;;;;5032095;28;20025;-78
2022/11/22 05:58:02;;;;;;;37.37;14.97;;;;;;;;;;5032404;28;20082;-79
2022/11/22 06:00:28;;;;;;;36.77;14.97;;;;;;;;;;5032542;28;20025;-79
2022/11/22 06:03:00;;;;;;;38.37;16.33;;;;;;;;;;5032382;28;20331;-78
2022/11/22 06:05:26;;;;;;;34.55;14.70;;;;;;;;;;5032244;28;20021;-79
2022/11/22 06:07:52;;;;;;;46.50;17.97;;;;;;;;;;5030762;28;20029;-79
2022/11/22 06:10:18;;;;;;;37.70;16.50;;;;;;;;;;5031318;28;20355;-79
2022/11/22 06:12:44;;;;;;;32.10;15.67;;;;;;;;;;5030754;28;20025;-78
2022/11/22 06:15:09;;;;;;;38.27;14.93;;;;;;;;;;5030592;28;20031;-77
2022/11/22 06:17:35;;;;;;;52.10;25.97;;;;;;;;;;5029192;28;20086;-78
2022/11/22 06:20:00;;;;;;;40.93;17.37;;;;;;;;;;5029594;28;20370;-78
2022/11/22 06:22:26;;;;;;;36.53;15.50;;;;;;;;;;5030582;28;20413;-77
2022/11/22 06:24:52;;;;;;;36.20;14.63;;;;;;;;;;5030124;28;20052;-80
2022/11/22 06:27:17;;;;;;;32.13;15.23;;;;;;;;;;5025827;28;20017;-81
2022/11/22 06:29:43;;;;;;;37.93;16.20;;;;;;;;;;5026054;28;20029;-78
2022/11/22 06:32:09;;;;;;;35.90;14.37;;;;;;;;;;5028681;28;21011;-78
2022/11/22 06:34:35;;;;;;;39.93;15.13;;;;;;;;;;5034331;28;20028;-79
2022/11/22 06:37:01;;;;;;;34.13;14.13;;;;;;;;;;5032475;28;20093;-78
2022/11/22 06:39:26;;;;;;;35.67;16.23;;;;;;;;;;5049764;28;20100;-79
2022/11/22 06:41:52;;;;;;;38.47;15.73;;;;;;;;;;5045808;28;20048;-79
2022/11/22 06:44:17;;;;;;;38.33;16.23;;;;;;;;;;5030016;28;20087;-78
2022/11/22 06:46:43;;;;;;;37.50;15.63;;;;;;;;;;5043254;28;20055;-79
2022/11/22 06:49:09;;;;;;;37.47;15.63;;;;;;;;;;5051451;28;20052;-79
2022/11/22 06:51:35;;;;;;;34.57;14.40;;;;;;;;;;5031843;28;20033;-80
2022/11/22 06:54:01;;;;;;;36.87;16.60;;;;;;;;;;5030448;28;20041;-82
2022/11/22 06:56:37;;;;;;;33.83;15.93;;;;;;;;;;5026573;28;20112;-80
2022/11/22 06:59:04;;;;;;;32.77;15.10;;;;;;;;;;5026640;28;20434;-79
2022/11/22 07:01:31;;;;;;;33.90;15.70;;;;;;;;;;5037198;28;20598;-80
2022/11/22 07:03:58;;;;;;;34.17;15.33;;;;;;;;;;5027779;28;20037;-80
2022/11/22 07:06:29;;;;;;;39.37;14.77;;;;;;;;;;5027856;28;20071;-80
2022/11/22 07:08:55;;;;;;;43.03;15.70;;;;;;;;;;5031550;28;20037;-80
2022/11/22 07:11:24;;;;;;;32.07;14.63;;;;;;;;;;5025619;28;20266;-79
2022/11/22 07:13:49;;;;;;;39.33;14.13;;;;;;;;;;5023537;28;20057;-79
2022/11/22 07:16:17;;;;;;;35.73;16.20;;;;;;;;;;5015031;28;20113;-80
2022/11/22 07:18:45;;;;;;;36.10;15.33;;;;;;;;;;5024698;28;20450;-84
2022/11/22 07:21:16;;;;;;;35.80;14.70;;;;;;;;;;5023264;28;20292;-83
2022/11/22 07:23:43;;;;;;;35.20;14.68;;;;;;;;;;5036619;28;20476;-82
2022/11/22 07:26:10;;;;;;;34.53;15.23;;;;;;;;;;5028947;28;20425;-80
2022/11/22 07:28:36;;;;;;;33.43;14.83;;;;;;;;;;5025876;28;20432;-81
2022/11/22 07:31:05;;;;;;;34.80;14.30;;;;;;;;;;5027284;28;20037;-81
2022/11/22 07:33:31;;;;;;;30.20;14.70;;;;;;;;;;5027579;28;20034;-78
2022/11/22 07:36:08;;;;;;;37.57;16.03;;;;;;;;;;5029086;28;20052;-79
2022/11/22 07:38:34;;;;;;;39.33;15.67;;;;;;;;;;5028579;28;20123;-78
2022/11/22 07:41:02;;;;;;;38.93;15.20;;;;;;;;;;5024370;28;20152;-84
2022/11/22 07:43:29;;;;;;;37.70;15.90;;;;;;;;;;5024320;28;20421;-83
2022/11/22 07:46:28;;;;;;;37.73;15.77;;;;;;;;;;5030180;28;20021;-86
2022/11/22 07:48:54;;;;;;;35.43;15.73;;;;;;;;;;5031920;28;20048;-85
2022/11/22 07:51:23;;;;;;;33.67;15.80;;;;;;;;;;5028940;28;20025;-86
2022/11/22 07:53:49;;;;;;;42.83;17.83;;;;;;;;;;5026078;28;20428;-82
2022/11/22 07:56:18;;;;;;;31.17;14.63;;;;;;;;;;5029355;28;20040;-81
2022/11/22 07:58:44;;;;;;;37.63;16.57;;;;;;;;;;5011730;28;20037;-81
2022/11/22 08:01:15;;;;;;;33.87;15.97;;;;;;;;;;5026380;28;20021;-85
2022/11/22 08:03:41;;;;;;;35.47;14.83;;;;;;;;;;5029276;28;20022;-84
2022/11/22 08:06:08;;;;;;;37.23;18.03;;;;;;;;;;5029023;28;20029;-83
2022/11/22 08:08:35;;;;;;;44.20;17.37;;;;;;;;;;5028533;28;20061;-79
2022/11/22 08:11:01;;;;;;;39.43;18.27;;;;;;;;;;5027928;28;20540;-79
2022/11/22 08:13:27;;;;;;;35.07;16.87;;;;;;;;;;5025094;28;20033;-82
2022/11/22 08:15:54;;;;;;;35.67;16.37;;;;;;;;;;5025092;28;20140;-80
2022/11/22 08:18:19;;;;;;;36.93;18.27;;;;;;;;;;5027022;28;20068;-81
2022/11/22 08:20:46;;;;;;;36.10;16.93;;;;;;;;;;5026142;28;20097;-88
2022/11/22 08:23:12;;;;;;;38.10;18.00;;;;;;;;;;5022807;28;20037;-81
2022/11/22 08:25:38;;;;;;;39.37;17.63;;;;;;;;;;5025132;28;20044;-82
2022/11/22 08:28:03;;;;;;;39.20;18.43;;;;;;;;;;5032587;28;20441;-85
2022/11/22 08:30:29;;;;;;;47.03;18.30;;;;;;;;;;5028753;28;20128;-82
2022/11/22 08:32:55;;;;;;;39.27;17.63;;;;;;;;;;5028250;28;20525;-81
2022/11/22 08:35:21;;;;;;;33.23;15.73;;;;;;;;;;5030907;28;20026;-78
2022/11/22 08:37:49;;;;;;;44.10;19.73;;;;;;;;;;5026215;28;20040;-84
2022/11/22 08:40:16;;;;;;;38.77;18.00;;;;;;;;;;5043063;28;20465;-80
2022/11/22 08:42:42;;;;;;;36.77;17.23;;;;;;;;;;5029746;28;20064;-79
2022/11/22 08:45:08;;;;;;;30.77;15.63;;;;;;;;;;5023605;28;20025;-81
2022/11/22 08:47:33;;;;;;;38.57;16.80;;;;;;;;;;5034075;28;20201;-83
2022/11/22 08:49:59;;;;;;;31.50;14.57;;;;;;;;;;5031456;28;20462;-84
2022/11/22 08:52:25;;;;;;;28.87;15.40;;;;;;;;;;5032225;28;20037;-85
2022/11/22 08:54:51;;;;;;;36.97;15.87;;;;;;;;;;5024419;28;20041;-81
2022/11/22 08:57:16;;;;;;;30.67;15.03;;;;;;;;;;5030071;28;20037;-83
2022/11/22 08:59:42;;;;;;;35.03;16.00;;;;;;;;;;5032119;28;20033;-81
2022/11/22 09:02:08;;;;;;;31.80;17.17;;;;;;;;;;5027323;28;20388;-82
2022/11/22 09:04:37;;;;;;;34.20;17.23;;;;;;;;;;5026883;28;20039;-83
2022/11/22 09:07:05;;;;;;;52.70;19.57;;;;;;;;;;5029020;28;20033;-83
2022/11/22 09:09:51;;;;;;;38.20;19.63;;;;;;;;;;5028466;28;20041;-83
2022/11/22 09:12:17;;;;;;;38.60;19.17;;;;;;;;;;5030655;28;20030;-82
2022/11/22 09:14:42;;;;;;;38.50;18.33;;;;;;;;;;5030740;28;20036;-81
2022/11/22 09:17:08;;;;;;;48.30;19.87;;;;;;;;;;5026751;28;20425;-81
2022/11/22 09:19:43;;;;;;;37.67;19.30;;;;;;;;;;5028270;28;20029;-85
2022/11/22 09:22:09;;;;;;;38.40;20.33;;;;;;;;;;5027340;28;20033;-78
2022/11/22 09:24:35;;;;;;;43.70;20.67;;;;;;;;;;5025349;28;20034;-83
2022/11/22 09:27:00;;;;;;;268.27;50.67;;;;;;;;;;5030569;28;20069;-79
2022/11/22 09:29:26;;;;;;;57.00;22.07;;;;;;;;;;5027984;28;20041;-83
2022/11/22 09:31:54;;;;;;;37.67;19.60;;;;;;;;;;5028118;28;20036;-85
2022/11/22 09:34:20;;;;;;;31.73;18.27;;;;;;;;;;5024422;28;20013;-84
2022/11/22 09:36:46;;;;;;;50.43;19.87;;;;;;;;;;5025105;28;20500;-79
2022/11/22 09:39:18;;;;;;;36.37;17.70;;;;;;;;;;5028515;28;20044;-84
2022/11/22 09:41:58;;;;;;;36.38;16.23;;;;;;;;;;5022907;28;20037;-81
2022/11/22 09:45:01;;;;;;;30.60;15.60;;;;;;;;;;5023379;28;20045;-83
2022/11/22 09:48:00;;;;;;;30.80;14.80;;;;;;;;;;5030524;28;20065;-82
2022/11/22 09:50:44;;;;;;;38.43;17.30;;;;;;;;;;5026695;28;20033;-81
2022/11/22 09:53:25;;;;;;;33.20;15.47;;;;;;;;;;5027445;28;20042;-81
2022/11/22 09:55:56;;;;;;;31.13;15.37;;;;;;;;;;5024083;28;20052;-84
2022/11/22 09:58:27;;;;;;;42.63;15.20;;;;;;;;;;5026455;28;20092;-83
2022/11/22 10:00:59;;;;;;;31.30;15.13;;;;;;;;;;5022086;28;20036;-85
2022/11/22 10:03:46;;;;;;;31.03;15.07;;;;;;;;;;5044003;28;20911;-85
2022/11/22 10:06:45;;;;;;;37.87;14.40;;;;;;;;;;5027388;28;20044;-85
2022/11/22 10:09:48;;;;;;;28.83;13.13;;;;;;;;;;5023713;28;20132;-85
2022/11/22 10:12:49;;;;;;;33.57;14.27;;;;;;;;;;5024510;28;20029;-85
2022/11/22 10:15:36;;;;;;;28.90;13.83;;;;;;;;;;5017015;28;20071;-82
2022/11/22 10:18:15;;;;;;;23.93;11.70;;;;;;;;;;5024629;28;20033;-83
2022/11/22 10:20:42;;;;;;;24.67;11.17;;;;;;;;;;5023472;28;20611;-79
2022/11/22 10:23:22;;;;;;;20.00;10.27;;;;;;;;;;5026522;28;20108;-87
2022/11/22 10:26:18;;;;;;;21.40;10.07;;;;;;;;;;5025452;28;20021;-84
2022/11/22 10:29:03;;;;;;;18.60;9.30;;;;;;;;;;5027685;28;20124;-85
2022/11/22 10:31:46;;;;;;;19.13;8.60;;;;;;;;;;5030713;28;20416;-84
2022/11/22 10:34:58;;;;;;;16.23;8.23;;;;;;;;;;5028782;28;20713;-83
2022/11/22 10:37:24;;;;;;;22.90;9.30;;;;;;;;;;5021219;28;20037;-82
2022/11/22 10:40:17;;;;;;;19.30;10.50;;;;;;;;;;5027499;28;20026;-84
2022/11/22 10:42:52;;;;;;;21.53;9.60;;;;;;;;;;5028952;28;20055;-84
2022/11/22 10:45:27;;;;;;;17.37;9.17;;;;;;;;;;5024503;28;20432;-84
2022/11/22 10:48:30;;;;;;;17.53;9.10;;;;;;;;;;5027734;28;20123;-82
2022/11/22 10:51:32;;;;;;;17.53;9.50;;;;;;;;;;5025610;28;20051;-84
2022/11/22 10:54:31;;;;;;;18.25;9.63;;;;;;;;;;5025012;28;20079;-83
2022/11/22 10:57:04;;;;;;;19.43;10.07;;;;;;;;;;5024162;28;20038;-84
2022/11/22 10:59:49;;;;;;;16.87;8.80;;;;;;;;;;5027401;28;20099;-84
2022/11/22 11:05:52;;;;;;;16.70;9.60;;;;;;;;;;5006988;23;20153;-79
2022/11/22 11:08:40;;;;;;;20.73;9.13;;;;;;;;;;4999143;28;20036;-80
2022/11/22 11:11:06;;;;;;;15.77;9.33;;;;;;;;;;5009946;28;20101;-78
2022/11/22 11:13:45;;;;;;;15.67;7.97;;;;;;;;;;5001038;28;20041;-79
2022/11/22 11:16:18;;;;;;;17.37;9.43;;;;;;;;;;4980331;28;20044;-78
2022/11/22 11:19:09;;;;;;;15.73;8.47;;;;;;;;;;5012453;28;20056;-78
2022/11/22 11:21:35;;;;;;;12.65;7.38;;;;;;;;;;4989789;28;20770;-79
2022/11/22 11:24:02;;;;;;;13.87;7.87;;;;;;;;;;5017108;28;20039;-79
2022/11/22 11:26:31;;;;;;;14.10;8.10;;;;;;;;;;5002214;28;20034;-80
2022/11/22 11:29:44;;;;;;;15.40;8.00;;;;;;;;;;5001875;28;20030;-81
2022/11/22 11:32:21;;;;;;;16.73;8.50;;;;;;;;;;5016949;28;20179;-80
2022/11/22 11:35:03;;;;;;;20.23;8.70;;;;;;;;;;5001026;28;20056;-79
2022/11/22 11:37:37;;;;;;;15.63;7.67;;;;;;;;;;5020428;28;20041;-81
2022/11/22 11:40:23;;;;;;;14.67;7.87;;;;;;;;;;5003042;28;20123;-81
2022/11/22 11:43:20;;;;;;;13.87;8.20;;;;;;;;;;5018301;28;20071;-78
2022/11/22 11:45:46;;;;;;;17.80;8.80;;;;;;;;;;5000378;28;20129;-82
2022/11/22 11:48:40;;;;;;;14.17;8.47;;;;;;;;;;5004837;28;20729;-80
2022/11/22 11:51:31;;;;;;;14.87;7.33;;;;;;;;;;4999199;28;20041;-80
2022/11/22 11:54:13;;;;;;;17.53;8.23;;;;;;;;;;5016142;28;20029;-82
2022/11/22 11:56:44;;;;;;;14.60;7.50;;;;;;;;;;5009793;28;20179;-83
2022/11/22 11:59:29;;;;;;;13.77;8.03;;;;;;;;;;5022890;28;20748;-82
2022/11/22 12:02:03;;;;;;;15.83;8.57;;;;;;;;;;5008830;28;20613;-81
2022/11/22 12:04:33;;;;;;;16.43;7.73;;;;;;;;;;5001945;28;20061;-80
2022/11/22 12:07:04;;;;;;;16.33;8.70;;;;;;;;;;5035900;28;20133;-80
2022/11/22 12:09:35;;;;;;;18.87;9.00;;;;;;;;;;5003077;28;20033;-79
2022/11/22 12:12:26;;;;;;;18.02;8.25;;;;;;;;;;5001012;28;20026;-81
2022/11/22 12:15:28;;;;;;;15.93;7.90;;;;;;;;;;4998455;28;20037;-72
2022/11/22 12:18:07;;;;;;;14.13;8.35;;;;;;;;;;5019832;28;20044;-78
2022/11/22 12:21:01;;;;;;;16.80;8.73;;;;;;;;;;5032987;28;20133;-76
2022/11/22 12:24:05;;;;;;;14.30;8.77;;;;;;;;;;4991570;28;20038;-79
2022/11/22 12:26:31;;;;;;;16.97;9.17;;;;;;;;;;5021735;28;20030;-75
2022/11/22 12:29:00;;;;;;;16.97;10.43;;;;;;;;;;5021915;28;20025;-75
2022/11/22 12:31:40;;;;;;;17.27;8.93;;;;;;;;;;5007096;28;20025;-79
2022/11/22 12:34:32;;;;;;;18.27;9.30;;;;;;;;;;5025381;28;20554;-78
2022/11/22 12:37:10;;;;;;;16.23;9.40;;;;;;;;;;5022430;28;20725;-79
2022/11/22 12:39:43;;;;;;;16.47;9.13;;;;;;;;;;5022715;28;20120;-77
2022/11/22 12:42:28;;;;;;;18.60;9.53;;;;;;;;;;5004974;28;20102;-77
2022/11/22 12:45:00;;;;;;;17.47;9.50;;;;;;;;;;5012708;28;20033;-78
2022/11/22 12:47:38;;;;;;;15.97;8.93;;;;;;;;;;5029482;28;20485;-77
2022/11/22 12:50:37;;;;;;;20.73;10.73;;;;;;;;;;4989109;28;20395;-79
2022/11/22 12:53:11;;;;;;;17.30;8.57;;;;;;;;;;5008762;28;20025;-79
2022/11/22 12:55:56;;;;;;;20.87;9.03;;;;;;;;;;5005886;28;20084;-76
2022/11/22 12:58:45;;;;;;;18.83;8.57;;;;;;;;;;5018023;28;20044;-76
2022/11/22 13:01:26;;;;;;;17.33;9.00;;;;;;;;;;5005024;28;20605;-80
2022/11/22 13:04:03;;;;;;;19.90;9.93;;;;;;;;;;5022516;28;20260;-80
2022/11/22 13:06:36;;;;;;;25.43;13.97;;;;;;;;;;5021422;28;20034;-79
2022/11/22 13:09:06;;;;;;;22.80;11.17;;;;;;;;;;5021776;28;20612;-80
2022/11/22 13:11:49;;;;;;;20.50;9.87;;;;;;;;;;5023713;28;20021;-76
2022/11/22 13:14:19;;;;;;;21.33;11.10;;;;;;;;;;5035805;28;20033;-79
2022/11/22 13:16:45;;;;;;;24.50;13.00;;;;;;;;;;5025357;28;20025;-75
2022/11/22 13:19:14;;;;;;;23.43;12.17;;;;;;;;;;5024238;28;20030;-76
2022/11/22 13:21:39;;;;;;;22.87;12.30;;;;;;;;;;5006421;28;20061;-79
2022/11/22 13:24:42;;;;;;;22.43;12.87;;;;;;;;;;5020197;28;20056;-77
2022/11/22 13:27:16;;;;;;;25.57;12.93;;;;;;;;;;5004760;28;20068;-76
2022/11/22 13:29:43;;;;;;;21.53;11.93;;;;;;;;;;5020310;28;20042;-79
2022/11/22 13:32:11;;;;;;;26.97;11.43;;;;;;;;;;5004224;28;20566;-77
2022/11/22 13:35:01;;;;;;;21.57;12.03;;;;;;;;;;5005647;28;20119;-78
2022/11/22 13:37:33;;;;;;;25.10;11.60;;;;;;;;;;5005295;28;20033;-77
2022/11/22 13:40:28;;;;;;;23.80;10.87;;;;;;;;;;5021981;28;20112;-77
2022/11/22 13:43:30;;;;;;;22.60;11.73;;;;;;;;;;4999155;28;20025;-78
2022/11/22 13:46:03;;;;;;;24.17;11.55;;;;;;;;;;5009491;28;20058;-73
2022/11/22 13:48:39;;;;;;;21.47;11.57;;;;;;;;;;5002774;28;20037;-79
2022/11/22 13:51:12;;;;;;;20.67;10.97;;;;;;;;;;5020056;28;20423;-75
2022/11/22 13:53:44;;;;;;;23.00;12.07;;;;;;;;;;5020801;28;20325;-80
2022/11/22 13:56:19;;;;;;;21.63;11.38;;;;;;;;;;5003631;28;20660;-76
2022/11/22 13:58:53;;;;;;;23.03;11.57;;;;;;;;;;5004511;28;20072;-80
2022/11/22 14:01:47;;;;;;;21.27;10.83;;;;;;;;;;5020690;28;20053;-78
2022/11/22 14:04:23;;;;;;;24.67;13.00;;;;;;;;;;5018338;28;20053;-75
2022/11/22 14:06:59;;;;;;;20.40;11.00;;;;;;;;;;5020914;28;20091;-76
2022/11/22 14:09:54;;;;;;;22.27;11.47;;;;;;;;;;5032277;28;20041;-77
2022/11/22 14:12:45;;;;;;;21.27;9.93;;;;;;;;;;5002899;28;20120;-76
2022/11/22 14:15:36;;;;;;;17.93;9.40;;;;;;;;;;5015155;28;20041;-78
2022/11/22 14:18:39;;;;;;;19.13;10.20;;;;;;;;;;5015382;28;20458;-77
2022/11/22 14:21:43;;;;;;;18.00;10.77;;;;;;;;;;5024127;28;20040;-78
2022/11/22 14:24:08;;;;;;;20.67;11.30;;;;;;;;;;4999819;28;20128;-78
2022/11/22 14:26:55;;;;;;;24.10;10.50;;;;;;;;;;5002723;28;20120;-77
2022/11/22 14:29:36;;;;;;;22.77;10.17;;;;;;;;;;5017872;28;20128;-78
2022/11/22 14:32:12;;;;;;;26.67;11.13;;;;;;;;;;5016800;28;20055;-76
2022/11/22 14:35:03;;;;;;;17.90;9.43;;;;;;;;;;4998818;28;20124;-76
2022/11/22 14:37:32;;;;;;;18.83;10.07;;;;;;;;;;5015240;28;20048;-77
2022/11/22 14:40:12;;;;;;;18.87;10.67;;;;;;;;;;5001881;28;20480;-76
2022/11/22 14:42:42;;;;;;;18.47;10.00;;;;;;;;;;5019854;28;20033;-76
2022/11/22 14:45:14;;;;;;;18.77;10.17;;;;;;;;;;5016463;28;20034;-76
2022/11/22 14:47:42;;;;;;;19.92;9.82;;;;;;;;;;5022132;28;20457;-76
2022/11/22 14:50:31;;;;;;;33.37;16.30;;;;;;;;;;5004701;28;20037;-79
2022/11/22 14:53:17;;;;;;;25.93;13.17;;;;;;;;;;5024635;28;20048;-75
2022/11/22 14:55:43;;;;;;;20.77;11.00;;;;;;;;;;5006192;28;20037;-75
2022/11/22 14:58:14;;;;;;;18.47;9.67;;;;;;;;;;5008042;28;20044;-77
2022/11/22 15:01:13;;;;;;;21.47;9.53;;;;;;;;;;5033355;28;20353;-78
2022/11/22 15:04:10;;;;;;;16.63;9.80;;;;;;;;;;5015037;28;20746;-77
2022/11/22 15:06:47;;;;;;;22.33;10.30;;;;;;;;;;5033808;28;20045;-75